sensor_id;sensor_type;location;lat;lon;timestamp;pressure;altitude;pressure_sealevel;temperature;humidity
59190;BME280;50749;51.636;4.948;2023-12-04T00:00:37;101265.69;;;13.94;47.38
59190;BME280;50749;51.636;4.948;2023-12-04T00:03:23;101253.06;;;13.93;47.72
59190;BME280;50749;51.636;4.948;2023-12-04T00:05:49;101241.91;;;13.98;45.90
59190;BME280;50749;51.636;4.948;2023-12-04T00:08:15;101241.91;;;13.98;46.86
59190;BME280;50749;51.636;4.948;2023-12-04T00:10:40;101235.25;;;13.82;47.38
59190;BME280;50749;51.636;4.948;2023-12-04T00:13:06;101245.41;;;13.72;47.94
59190;BME280;50749;51.636;4.948;2023-12-04T00:15:32;101237.66;;;13.74;47.64
59190;BME280;50749;51.636;4.948;2023-12-04T00:17:57;101224.59;;;13.89;46.56
59190;BME280;50749;51.636;4.948;2023-12-04T00:20:23;101230.25;;;13.84;46.80
59190;BME280;50749;51.636;4.948;2023-12-04T00:22:49;101223.78;;;13.88;46.23
59190;BME280;50749;51.636;4.948;2023-12-04T00:25:14;101231.69;;;13.81;46.59
59190;BME280;50749;51.636;4.948;2023-12-04T00:27:40;101227.50;;;13.84;46.47
59190;BME280;50749;51.636;4.948;2023-12-04T00:30:06;101231.38;;;13.83;46.50
59190;BME280;50749;51.636;4.948;2023-12-04T00:32:33;101224.84;;;13.61;48.30
59190;BME280;50749;51.636;4.948;2023-12-04T00:34:58;101221.00;;;13.62;47.62
59190;BME280;50749;51.636;4.948;2023-12-04T00:37:26;101220.06;;;13.75;45.24
59190;BME280;50749;51.636;4.948;2023-12-04T00:39:52;101224.56;;;13.71;46.88
59190;BME280;50749;51.636;4.948;2023-12-04T00:42:18;101213.88;;;13.61;47.65
59190;BME280;50749;51.636;4.948;2023-12-04T00:44:44;101207.91;;;13.68;46.83
59190;BME280;50749;51.636;4.948;2023-12-04T00:47:09;101202.75;;;13.75;46.04
59190;BME280;50749;51.636;4.948;2023-12-04T00:49:36;101216.13;;;13.59;47.31
59190;BME280;50749;51.636;4.948;2023-12-04T00:52:02;101209.19;;;13.62;46.70
59190;BME280;50749;51.636;4.948;2023-12-04T00:54:28;101215.66;;;13.57;47.64
59190;BME280;50749;51.636;4.948;2023-12-04T00:56:53;101207.69;;;13.47;48.24
59190;BME280;50749;51.636;4.948;2023-12-04T00:59:19;101199.16;;;13.48;47.91
59190;BME280;50749;51.636;4.948;2023-12-04T01:01:45;101198.84;;;13.59;46.80
59190;BME280;50749;51.636;4.948;2023-12-04T01:04:11;101199.16;;;13.57;47.62
59190;BME280;50749;51.636;4.948;2023-12-04T01:06:37;101192.03;;;13.56;47.66
59190;BME280;50749;51.636;4.948;2023-12-04T01:09:02;101184.31;;;13.67;46.30
59190;BME280;50749;51.636;4.948;2023-12-04T01:11:28;101187.03;;;13.58;47.24
59190;BME280;50749;51.636;4.948;2023-12-04T01:13:54;101178.63;;;13.63;46.72
59190;BME280;50749;51.636;4.948;2023-12-04T01:16:20;101174.94;;;13.68;46.38
59190;BME280;50749;51.636;4.948;2023-12-04T01:18:45;101174.28;;;13.71;45.73
59190;BME280;50749;51.636;4.948;2023-12-04T01:21:11;101166.22;;;13.66;46.16
59190;BME280;50749;51.636;4.948;2023-12-04T01:23:37;101169.91;;;13.52;46.70
59190;BME280;50749;51.636;4.948;2023-12-04T01:26:06;101168.78;;;13.53;46.25
59190;BME280;50749;51.636;4.948;2023-12-04T01:28:32;101161.31;;;13.45;47.14
59190;BME280;50749;51.636;4.948;2023-12-04T01:30:57;101164.56;;;13.47;46.97
59190;BME280;50749;51.636;4.948;2023-12-04T01:33:23;101158.09;;;13.43;47.31
59190;BME280;50749;51.636;4.948;2023-12-04T01:35:49;101157.47;;;13.55;45.90
59190;BME280;50749;51.636;4.948;2023-12-04T01:38:15;101147.28;;;13.47;46.57
59190;BME280;50749;51.636;4.948;2023-12-04T01:40:41;101153.50;;;13.30;47.83
59190;BME280;50749;51.636;4.948;2023-12-04T01:43:06;101148.81;;;13.30;47.47
59190;BME280;50749;51.636;4.948;2023-12-04T01:45:32;101153.06;;;13.36;47.23
59190;BME280;50749;51.636;4.948;2023-12-04T01:47:58;101141.75;;;13.38;46.67
59190;BME280;50749;51.636;4.948;2023-12-04T01:50:24;101142.56;;;13.38;46.28
59190;BME280;50749;51.636;4.948;2023-12-04T01:52:52;101143.06;;;13.41;46.00
59190;BME280;50749;51.636;4.948;2023-12-04T01:55:19;101139.34;;;13.36;45.98
59190;BME280;50749;51.636;4.948;2023-12-04T01:57:45;101130.09;;;13.32;46.78
59190;BME280;50749;51.636;4.948;2023-12-04T02:00:12;101131.19;;;13.31;46.90
59190;BME280;50749;51.636;4.948;2023-12-04T02:02:39;101130.28;;;13.36;46.06
59190;BME280;50749;51.636;4.948;2023-12-04T02:05:07;101122.16;;;13.31;46.87
59190;BME280;50749;51.636;4.948;2023-12-04T02:07:33;101119.13;;;13.32;46.29
59190;BME280;50749;51.636;4.948;2023-12-04T02:09:59;101121.06;;;13.32;45.61
59190;BME280;50749;51.636;4.948;2023-12-04T02:12:25;101115.88;;;13.30;46.11
59190;BME280;50749;51.636;4.948;2023-12-04T02:14:52;101124.72;;;13.27;46.67
59190;BME280;50749;51.636;4.948;2023-12-04T02:17:18;101112.63;;;13.28;46.02
59190;BME280;50749;51.636;4.948;2023-12-04T02:19:45;101105.97;;;13.20;46.90
59190;BME280;50749;51.636;4.948;2023-12-04T02:22:10;101106.16;;;13.24;46.70
59190;BME280;50749;51.636;4.948;2023-12-04T02:24:36;101101.97;;;13.27;46.15
59190;BME280;50749;51.636;4.948;2023-12-04T02:27:38;101103.72;;;13.23;46.57
59190;BME280;50749;51.636;4.948;2023-12-04T02:30:08;101093.88;;;13.22;46.42
59190;BME280;50749;51.636;4.948;2023-12-04T02:32:41;101096.94;;;13.11;46.61
59190;BME280;50749;51.636;4.948;2023-12-04T02:35:09;101090.63;;;13.19;46.16
59190;BME280;50749;51.636;4.948;2023-12-04T02:37:35;101077.03;;;13.06;47.59
59190;BME280;50749;51.636;4.948;2023-12-04T02:40:02;101082.53;;;13.14;47.05
59190;BME280;50749;51.636;4.948;2023-12-04T02:42:28;101073.34;;;13.19;46.01
59190;BME280;50749;51.636;4.948;2023-12-04T02:44:54;101068.50;;;13.16;45.96
59190;BME280;50749;51.636;4.948;2023-12-04T02:47:20;101074.28;;;13.06;47.06
59190;BME280;50749;51.636;4.948;2023-12-04T02:49:46;101068.16;;;13.09;46.43
59190;BME280;50749;51.636;4.948;2023-12-04T02:52:11;101063.63;;;13.04;46.54
59190;BME280;50749;51.636;4.948;2023-12-04T02:54:37;101060.22;;;12.98;46.78
59190;BME280;50749;51.636;4.948;2023-12-04T02:57:03;101053.28;;;13.01;46.94
59190;BME280;50749;51.636;4.948;2023-12-04T02:59:29;101046.81;;;12.97;46.66
59190;BME280;50749;51.636;4.948;2023-12-04T03:01:55;101042.97;;;12.98;47.08
59190;BME280;50749;51.636;4.948;2023-12-04T03:04:21;101035.84;;;13.06;45.83
59190;BME280;50749;51.636;4.948;2023-12-04T03:06:46;101029.03;;;12.94;47.09
59190;BME280;50749;51.636;4.948;2023-12-04T03:09:13;101034.53;;;12.94;46.26
59190;BME280;50749;51.636;4.948;2023-12-04T03:11:42;101028.09;;;12.99;46.39
59190;BME280;50749;51.636;4.948;2023-12-04T03:14:08;101025.97;;;12.96;46.48
59190;BME280;50749;51.636;4.948;2023-12-04T03:16:33;101025.19;;;12.95;46.25
59190;BME280;50749;51.636;4.948;2023-12-04T03:18:59;101023.69;;;12.80;47.29
59190;BME280;50749;51.636;4.948;2023-12-04T03:21:25;101018.72;;;12.91;45.54
59190;BME280;50749;51.636;4.948;2023-12-04T03:23:51;101016.63;;;12.88;46.40
59190;BME280;50749;51.636;4.948;2023-12-04T03:26:16;101014.84;;;12.92;45.88
59190;BME280;50749;51.636;4.948;2023-12-04T03:28:42;101010.97;;;12.93;45.75
59190;BME280;50749;51.636;4.948;2023-12-04T03:31:08;101007.91;;;12.86;46.26
59190;BME280;50749;51.636;4.948;2023-12-04T03:33:34;101001.75;;;12.89;45.45
59190;BME280;50749;51.636;4.948;2023-12-04T03:36:00;100999.53;;;12.91;45.25
59190;BME280;50749;51.636;4.948;2023-12-04T03:38:26;100994.03;;;12.91;44.81
59190;BME280;50749;51.636;4.948;2023-12-04T03:40:52;100981.75;;;12.97;43.93
59190;BME280;50749;51.636;4.948;2023-12-04T03:43:18;100982.75;;;13.01;43.68
59190;BME280;50749;51.636;4.948;2023-12-04T03:45:43;100985.34;;;13.07;44.43
59190;BME280;50749;51.636;4.948;2023-12-04T03:48:09;100980.97;;;13.14;46.82
59190;BME280;50749;51.636;4.948;2023-12-04T03:50:35;100977.94;;;13.25;47.10
59190;BME280;50749;51.636;4.948;2023-12-04T03:53:01;100978.13;;;13.37;47.44
59190;BME280;50749;51.636;4.948;2023-12-04T03:55:27;100980.22;;;13.49;48.41
59190;BME280;50749;51.636;4.948;2023-12-04T03:57:53;100974.84;;;13.61;48.72
59190;BME280;50749;51.636;4.948;2023-12-04T04:00:19;100957.72;;;13.73;48.71
59190;BME280;50749;51.636;4.948;2023-12-04T04:02:45;100961.41;;;13.86;48.54
59190;BME280;50749;51.636;4.948;2023-12-04T04:05:11;100957.50;;;13.96;48.61
59190;BME280;50749;51.636;4.948;2023-12-04T04:07:37;100956.31;;;14.05;48.35
59190;BME280;50749;51.636;4.948;2023-12-04T04:10:03;100957.91;;;14.15;48.55
59190;BME280;50749;51.636;4.948;2023-12-04T04:12:30;100958.38;;;14.26;48.63
59190;BME280;50749;51.636;4.948;2023-12-04T04:14:57;100945.38;;;14.35;48.22
59190;BME280;50749;51.636;4.948;2023-12-04T04:17:23;100943.75;;;14.43;48.91
59190;BME280;50749;51.636;4.948;2023-12-04T04:19:54;100939.81;;;14.53;47.99
59190;BME280;50749;51.636;4.948;2023-12-04T04:22:21;100941.75;;;14.61;48.30
59190;BME280;50749;51.636;4.948;2023-12-04T04:24:47;100935.69;;;14.67;47.79
59190;BME280;50749;51.636;4.948;2023-12-04T04:27:13;100938.72;;;14.75;48.12
59190;BME280;50749;51.636;4.948;2023-12-04T04:29:39;100929.94;;;14.81;48.26
59190;BME280;50749;51.636;4.948;2023-12-04T04:32:05;100922.63;;;14.85;48.15
59190;BME280;50749;51.636;4.948;2023-12-04T04:34:31;100918.66;;;14.95;48.13
59190;BME280;50749;51.636;4.948;2023-12-04T04:36:57;100922.00;;;15.01;48.25
59190;BME280;50749;51.636;4.948;2023-12-04T04:39:22;100924.56;;;15.06;48.27
59190;BME280;50749;51.636;4.948;2023-12-04T04:41:48;100927.94;;;15.12;48.12
59190;BME280;50749;51.636;4.948;2023-12-04T04:44:14;100925.78;;;15.17;48.04
59190;BME280;50749;51.636;4.948;2023-12-04T04:46:40;100926.38;;;15.23;47.79
59190;BME280;50749;51.636;4.948;2023-12-04T04:49:05;100927.66;;;15.26;48.12
59190;BME280;50749;51.636;4.948;2023-12-04T04:51:33;100923.91;;;15.30;48.02
59190;BME280;50749;51.636;4.948;2023-12-04T04:54:00;100916.22;;;15.36;47.78
59190;BME280;50749;51.636;4.948;2023-12-04T04:56:26;100916.34;;;15.39;47.62
59190;BME280;50749;51.636;4.948;2023-12-04T04:58:52;100915.00;;;15.46;47.23
59190;BME280;50749;51.636;4.948;2023-12-04T05:01:17;100911.56;;;15.49;47.58
59190;BME280;50749;51.636;4.948;2023-12-04T05:03:43;100900.66;;;15.52;47.42
59190;BME280;50749;51.636;4.948;2023-12-04T05:06:09;100902.75;;;15.55;47.82
59190;BME280;50749;51.636;4.948;2023-12-04T05:08:35;100893.31;;;15.56;47.87
59190;BME280;50749;51.636;4.948;2023-12-04T05:11:01;100886.00;;;15.60;47.74
59190;BME280;50749;51.636;4.948;2023-12-04T05:13:26;100875.44;;;15.63;47.60
59190;BME280;50749;51.636;4.948;2023-12-04T05:15:52;100867.63;;;15.65;47.59
59190;BME280;50749;51.636;4.948;2023-12-04T05:18:18;100865.47;;;15.70;47.53
59190;BME280;50749;51.636;4.948;2023-12-04T05:20:44;100865.94;;;15.72;47.19
59190;BME280;50749;51.636;4.948;2023-12-04T05:23:09;100850.63;;;15.75;47.62
59190;BME280;50749;51.636;4.948;2023-12-04T05:25:35;100853.91;;;15.77;47.24
59190;BME280;50749;51.636;4.948;2023-12-04T05:28:01;100849.31;;;15.81;47.69
59190;BME280;50749;51.636;4.948;2023-12-04T05:30:27;100849.88;;;15.87;47.29
59190;BME280;50749;51.636;4.948;2023-12-04T05:32:52;100850.03;;;15.90;47.00
59190;BME280;50749;51.636;4.948;2023-12-04T05:35:20;100841.03;;;15.93;47.39
59190;BME280;50749;51.636;4.948;2023-12-04T05:37:46;100843.22;;;16.00;46.61
59190;BME280;50749;51.636;4.948;2023-12-04T05:40:13;100847.72;;;16.05;46.90
59190;BME280;50749;51.636;4.948;2023-12-04T05:42:39;100847.03;;;16.08;47.00
59190;BME280;50749;51.636;4.948;2023-12-04T05:45:05;100840.81;;;16.11;47.50
59190;BME280;50749;51.636;4.948;2023-12-04T05:47:33;100843.81;;;16.18;47.42
59190;BME280;50749;51.636;4.948;2023-12-04T05:49:59;100841.94;;;16.22;47.40
59190;BME280;50749;51.636;4.948;2023-12-04T05:52:24;100846.78;;;16.25;47.62
59190;BME280;50749;51.636;4.948;2023-12-04T05:54:50;100840.13;;;16.26;47.36
59190;BME280;50749;51.636;4.948;2023-12-04T05:57:16;100842.06;;;16.38;48.72
59190;BME280;50749;51.636;4.948;2023-12-04T05:59:42;100823.53;;;16.39;48.14
59190;BME280;50749;51.636;4.948;2023-12-04T06:02:08;100826.75;;;16.41;48.10
59190;BME280;50749;51.636;4.948;2023-12-04T06:04:34;100830.00;;;16.43;47.83
59190;BME280;50749;51.636;4.948;2023-12-04T06:06:59;100828.47;;;16.45;47.46
59190;BME280;50749;51.636;4.948;2023-12-04T06:09:25;100810.78;;;16.46;47.46
59190;BME280;50749;51.636;4.948;2023-12-04T06:11:51;100820.66;;;16.47;47.25
59190;BME280;50749;51.636;4.948;2023-12-04T06:14:17;100815.94;;;16.48;47.13
59190;BME280;50749;51.636;4.948;2023-12-04T06:16:42;100821.91;;;16.50;47.28
59190;BME280;50749;51.636;4.948;2023-12-04T06:19:08;100813.63;;;16.50;46.99
59190;BME280;50749;51.636;4.948;2023-12-04T06:21:34;100816.06;;;16.51;46.68
59190;BME280;50749;51.636;4.948;2023-12-04T06:24:00;100814.44;;;16.50;46.62
59190;BME280;50749;51.636;4.948;2023-12-04T06:26:26;100805.81;;;16.52;46.50
59190;BME280;50749;51.636;4.948;2023-12-04T06:28:52;100806.63;;;16.52;46.33
59190;BME280;50749;51.636;4.948;2023-12-04T06:31:18;100802.00;;;16.57;47.07
59190;BME280;50749;51.636;4.948;2023-12-04T06:33:44;100798.44;;;16.56;47.19
59190;BME280;50749;51.636;4.948;2023-12-04T06:36:12;100806.38;;;16.58;46.12
59190;BME280;50749;51.636;4.948;2023-12-04T06:38:40;100810.38;;;16.60;47.11
59190;BME280;50749;51.636;4.948;2023-12-04T06:41:07;100802.09;;;16.60;46.19
59190;BME280;50749;51.636;4.948;2023-12-04T06:43:33;100793.94;;;16.64;46.75
59190;BME280;50749;51.636;4.948;2023-12-04T06:45:59;100789.56;;;16.63;46.50
59190;BME280;50749;51.636;4.948;2023-12-04T06:48:25;100790.47;;;16.67;46.42
59190;BME280;50749;51.636;4.948;2023-12-04T06:50:51;100785.41;;;16.69;46.18
59190;BME280;50749;51.636;4.948;2023-12-04T06:53:17;100786.66;;;16.71;46.08
59190;BME280;50749;51.636;4.948;2023-12-04T06:55:43;100777.94;;;16.69;46.50
59190;BME280;50749;51.636;4.948;2023-12-04T06:58:10;100772.50;;;16.73;46.07
59190;BME280;50749;51.636;4.948;2023-12-04T07:00:35;100767.34;;;16.71;46.62
59190;BME280;50749;51.636;4.948;2023-12-04T07:03:01;100766.16;;;16.72;47.20
59190;BME280;50749;51.636;4.948;2023-12-04T07:05:27;100774.94;;;16.75;47.28
59190;BME280;50749;51.636;4.948;2023-12-04T07:07:53;100760.78;;;16.76;47.30
59190;BME280;50749;51.636;4.948;2023-12-04T07:10:18;100757.63;;;16.78;46.23
59190;BME280;50749;51.636;4.948;2023-12-04T07:12:44;100763.16;;;16.78;46.08
59190;BME280;50749;51.636;4.948;2023-12-04T07:15:11;100767.53;;;16.79;46.23
59190;BME280;50749;51.636;4.948;2023-12-04T07:17:40;100748.22;;;16.79;46.48
59190;BME280;50749;51.636;4.948;2023-12-04T07:20:06;100754.53;;;16.79;46.34
59190;BME280;50749;51.636;4.948;2023-12-04T07:22:32;100757.75;;;16.81;46.51
59190;BME280;50749;51.636;4.948;2023-12-04T07:24:58;100743.59;;;16.83;46.38
59190;BME280;50749;51.636;4.948;2023-12-04T07:27:24;100746.38;;;16.83;46.83
59190;BME280;50749;51.636;4.948;2023-12-04T07:29:50;100749.13;;;16.83;45.86
59190;BME280;50749;51.636;4.948;2023-12-04T07:32:16;100749.13;;;16.83;45.90
59190;BME280;50749;51.636;4.948;2023-12-04T07:34:43;100746.38;;;16.83;44.84
59190;BME280;50749;51.636;4.948;2023-12-04T07:37:09;100750.28;;;16.82;46.32
59190;BME280;50749;51.636;4.948;2023-12-04T07:39:35;100737.59;;;16.81;46.19
59190;BME280;50749;51.636;4.948;2023-12-04T07:42:01;100745.88;;;16.81;45.55
59190;BME280;50749;51.636;4.948;2023-12-04T07:44:27;100746.59;;;16.78;45.21
59190;BME280;50749;51.636;4.948;2023-12-04T07:46:53;100759.50;;;16.74;46.09
59190;BME280;50749;51.636;4.948;2023-12-04T07:49:19;100749.50;;;16.69;45.81
59190;BME280;50749;51.636;4.948;2023-12-04T07:51:45;100748.28;;;16.66;43.40
59190;BME280;50749;51.636;4.948;2023-12-04T07:54:10;100761.16;;;16.62;44.40
59190;BME280;50749;51.636;4.948;2023-12-04T07:56:37;100756.31;;;16.59;42.14
59190;BME280;50749;51.636;4.948;2023-12-04T07:59:02;100756.72;;;16.58;42.60
59190;BME280;50749;51.636;4.948;2023-12-04T08:01:28;100751.19;;;16.58;42.68
59190;BME280;50749;51.636;4.948;2023-12-04T08:03:54;100748.72;;;16.68;41.73
59190;BME280;50749;51.636;4.948;2023-12-04T08:06:20;100737.22;;;16.66;42.10
59190;BME280;50749;51.636;4.948;2023-12-04T08:08:45;100733.56;;;16.62;42.09
59190;BME280;50749;51.636;4.948;2023-12-04T08:11:11;100734.25;;;16.59;42.13
59190;BME280;50749;51.636;4.948;2023-12-04T08:13:38;100724.91;;;16.64;42.15
59190;BME280;50749;51.636;4.948;2023-12-04T08:16:05;100738.38;;;16.65;41.99
59190;BME280;50749;51.636;4.948;2023-12-04T08:18:37;100727.84;;;16.55;42.63
59190;BME280;50749;51.636;4.948;2023-12-04T08:21:03;100722.22;;;16.51;42.76
59190;BME280;50749;51.636;4.948;2023-12-04T08:23:29;100707.72;;;16.55;42.47
59190;BME280;50749;51.636;4.948;2023-12-04T08:25:55;100719.13;;;16.53;42.83
59190;BME280;50749;51.636;4.948;2023-12-04T08:28:21;100712.91;;;16.56;41.93
59190;BME280;50749;51.636;4.948;2023-12-04T08:30:46;100706.91;;;16.54;41.99
59190;BME280;50749;51.636;4.948;2023-12-04T08:33:12;100705.06;;;16.58;41.97
59190;BME280;50749;51.636;4.948;2023-12-04T08:35:38;100704.97;;;16.55;42.84
59190;BME280;50749;51.636;4.948;2023-12-04T08:38:04;100696.59;;;16.51;43.04
59190;BME280;50749;51.636;4.948;2023-12-04T08:40:30;100706.38;;;16.48;42.73
59190;BME280;50749;51.636;4.948;2023-12-04T08:42:55;100711.44;;;16.46;42.67
59190;BME280;50749;51.636;4.948;2023-12-04T08:45:21;100700.06;;;16.48;42.09
59190;BME280;50749;51.636;4.948;2023-12-04T08:47:47;100695.94;;;16.42;42.60
59190;BME280;50749;51.636;4.948;2023-12-04T08:50:14;100695.13;;;16.41;42.98
59190;BME280;50749;51.636;4.948;2023-12-04T08:52:40;100694.31;;;16.41;42.59
59190;BME280;50749;51.636;4.948;2023-12-04T08:55:07;100683.06;;;16.46;42.43
59190;BME280;50749;51.636;4.948;2023-12-04T08:57:33;100675.47;;;16.43;42.39
59190;BME280;50749;51.636;4.948;2023-12-04T08:59:59;100683.19;;;16.37;43.20
59190;BME280;50749;51.636;4.948;2023-12-04T09:02:24;100688.25;;;16.35;43.19
59190;BME280;50749;51.636;4.948;2023-12-04T09:04:50;100689.53;;;16.38;42.21
59190;BME280;50749;51.636;4.948;2023-12-04T09:07:16;100692.19;;;16.34;42.70
59190;BME280;50749;51.636;4.948;2023-12-04T09:09:42;100695.63;;;16.31;42.96
59190;BME280;50749;51.636;4.948;2023-12-04T09:12:09;100696.34;;;16.28;41.92
59190;BME280;50749;51.636;4.948;2023-12-04T09:14:35;100691.84;;;16.23;43.06
59190;BME280;50749;51.636;4.948;2023-12-04T09:17:01;100694.97;;;16.22;43.14
59190;BME280;50749;51.636;4.948;2023-12-04T09:19:27;100691.50;;;16.25;43.08
59190;BME280;50749;51.636;4.948;2023-12-04T09:21:53;100700.38;;;16.18;43.73
59190;BME280;50749;51.636;4.948;2023-12-04T09:24:19;100681.75;;;16.15;43.57
59190;BME280;50749;51.636;4.948;2023-12-04T09:26:44;100680.19;;;16.14;43.45
59190;BME280;50749;51.636;4.948;2023-12-04T09:29:13;100681.13;;;16.06;44.02
59190;BME280;50749;51.636;4.948;2023-12-04T09:31:39;100676.84;;;16.08;43.10
59190;BME280;50749;51.636;4.948;2023-12-04T09:34:05;100675.25;;;16.07;43.74
59190;BME280;50749;51.636;4.948;2023-12-04T09:36:31;100682.34;;;16.08;43.40
59190;BME280;50749;51.636;4.948;2023-12-04T09:38:57;100675.94;;;16.04;43.45
59190;BME280;50749;51.636;4.948;2023-12-04T09:41:22;100673.34;;;15.95;44.04
59190;BME280;50749;51.636;4.948;2023-12-04T09:43:49;100671.91;;;16.02;43.31
59190;BME280;50749;51.636;4.948;2023-12-04T09:46:16;100670.00;;;16.02;42.48
59190;BME280;50749;51.636;4.948;2023-12-04T09:48:43;100663.78;;;15.93;43.45
59190;BME280;50749;51.636;4.948;2023-12-04T09:51:09;100666.44;;;15.89;42.61
59190;BME280;50749;51.636;4.948;2023-12-04T09:53:36;100662.75;;;15.85;43.87
59190;BME280;50749;51.636;4.948;2023-12-04T09:56:03;100657.16;;;15.82;44.39
59190;BME280;50749;51.636;4.948;2023-12-04T09:58:29;100652.91;;;15.84;44.33
59190;BME280;50749;51.636;4.948;2023-12-04T10:01:00;100648.09;;;15.81;44.88
59190;BME280;50749;51.636;4.948;2023-12-04T10:03:26;100645.31;;;15.81;44.83
59190;BME280;50749;51.636;4.948;2023-12-04T10:05:54;100648.53;;;15.83;44.35
59190;BME280;50749;51.636;4.948;2023-12-04T10:08:20;100644.19;;;15.82;45.00
59190;BME280;50749;51.636;4.948;2023-12-04T10:10:47;100639.03;;;15.81;45.35
59190;BME280;50749;51.636;4.948;2023-12-04T10:13:13;100643.03;;;15.83;44.38
59190;BME280;50749;51.636;4.948;2023-12-04T10:15:48;100639.81;;;15.81;44.75
59190;BME280;50749;51.636;4.948;2023-12-04T10:18:28;100626.38;;;15.79;45.03
59190;BME280;50749;51.636;4.948;2023-12-04T10:20:56;100626.28;;;15.76;45.34
59190;BME280;50749;51.636;4.948;2023-12-04T10:23:22;100613.59;;;15.75;44.59
59190;BME280;50749;51.636;4.948;2023-12-04T10:25:49;100624.19;;;15.73;45.28
59190;BME280;50749;51.636;4.948;2023-12-04T10:28:18;100604.34;;;15.67;44.93
59190;BME280;50749;51.636;4.948;2023-12-04T10:30:45;100609.50;;;15.69;45.10
59190;BME280;50749;51.636;4.948;2023-12-04T10:33:11;100603.16;;;15.68;45.91
59190;BME280;50749;51.636;4.948;2023-12-04T10:35:40;100594.56;;;15.70;44.88
59190;BME280;50749;51.636;4.948;2023-12-04T10:38:07;100592.03;;;15.65;45.53
59190;BME280;50749;51.636;4.948;2023-12-04T10:40:35;100581.03;;;15.65;45.71
59190;BME280;50749;51.636;4.948;2023-12-04T10:43:14;100581.03;;;15.65;46.02
59190;BME280;50749;51.636;4.948;2023-12-04T10:45:40;100568.16;;;15.69;45.75
59190;BME280;50749;51.636;4.948;2023-12-04T10:48:08;100566.09;;;15.66;44.93
59190;BME280;50749;51.636;4.948;2023-12-04T10:50:35;100575.09;;;15.50;46.85
59190;BME280;50749;51.636;4.948;2023-12-04T10:53:01;100568.78;;;15.50;46.17
59190;BME280;50749;51.636;4.948;2023-12-04T10:55:30;100573.59;;;15.53;45.31
59190;BME280;50749;51.636;4.948;2023-12-04T10:57:56;100560.84;;;15.60;44.11
59190;BME280;50749;51.636;4.948;2023-12-04T11:00:22;100563.16;;;15.46;44.99
59190;BME280;50749;51.636;4.948;2023-12-04T11:02:53;100560.97;;;15.52;43.81
59190;BME280;50749;51.636;4.948;2023-12-04T11:05:20;100559.38;;;15.51;43.14
59190;BME280;50749;51.636;4.948;2023-12-04T11:07:54;100552.47;;;15.45;43.16
59190;BME280;50749;51.636;4.948;2023-12-04T11:10:22;100559.28;;;15.35;43.19
59190;BME280;50749;51.636;4.948;2023-12-04T11:12:57;100552.41;;;15.29;43.54
59190;BME280;50749;51.636;4.948;2023-12-04T11:15:24;100542.78;;;15.22;43.10
59190;BME280;50749;51.636;4.948;2023-12-04T11:17:55;100545.88;;;15.21;43.45
59190;BME280;50749;51.636;4.948;2023-12-04T11:20:24;100541.63;;;15.11;43.66
59190;BME280;50749;51.636;4.948;2023-12-04T11:22:53;100536.00;;;15.08;43.75
59190;BME280;50749;51.636;4.948;2023-12-04T11:25:20;100537.53;;;15.05;43.32
59190;BME280;50749;51.636;4.948;2023-12-04T11:27:49;100523.75;;;15.05;43.57
59190;BME280;50749;51.636;4.948;2023-12-04T11:30:15;100524.44;;;15.02;43.61
59190;BME280;50749;51.636;4.948;2023-12-04T11:32:45;100522.84;;;15.01;43.58
59190;BME280;50749;51.636;4.948;2023-12-04T11:35:18;100519.72;;;15.02;42.47
59190;BME280;50749;51.636;4.948;2023-12-04T11:37:44;100517.81;;;15.03;42.32
59190;BME280;50749;51.636;4.948;2023-12-04T11:40:12;100509.31;;;14.96;43.09
59190;BME280;50749;51.636;4.948;2023-12-04T11:42:40;100503.34;;;14.94;42.96
59190;BME280;50749;51.636;4.948;2023-12-04T11:45:06;100502.56;;;14.93;43.11
59190;BME280;50749;51.636;4.948;2023-12-04T11:47:51;100487.50;;;14.91;45.89
59190;BME280;50749;51.636;4.948;2023-12-04T11:50:21;100483.63;;;14.92;44.65
59190;BME280;50749;51.636;4.948;2023-12-04T11:52:47;100482.94;;;14.95;44.59
59190;BME280;50749;51.636;4.948;2023-12-04T11:55:23;100477.09;;;14.96;44.53
59190;BME280;50749;51.636;4.948;2023-12-04T11:57:54;100474.00;;;14.98;44.42
59190;BME280;50749;51.636;4.948;2023-12-04T12:00:21;100473.63;;;14.99;45.07
59190;BME280;50749;51.636;4.948;2023-12-04T12:05:17;100454.50;;;15.03;45.84
59190;BME280;50749;51.636;4.948;2023-12-04T12:07:43;100457.69;;;15.05;45.87
59190;BME280;50749;51.636;4.948;2023-12-04T12:10:11;100454.59;;;15.07;46.22
59190;BME280;50749;51.636;4.948;2023-12-04T12:12:41;100450.66;;;15.08;46.15
59190;BME280;50749;51.636;4.948;2023-12-04T12:15:11;100441.63;;;15.07;46.64
59190;BME280;50749;51.636;4.948;2023-12-04T12:17:39;100436.22;;;15.11;46.08
59190;BME280;50749;51.636;4.948;2023-12-04T12:20:08;100433.00;;;15.09;46.21
59190;BME280;50749;51.636;4.948;2023-12-04T12:22:36;100431.06;;;15.09;46.48
59190;BME280;50749;51.636;4.948;2023-12-04T12:25:07;100420.72;;;15.06;46.76
59190;BME280;50749;51.636;4.948;2023-12-04T12:27:34;100420.47;;;15.11;46.80
59190;BME280;50749;51.636;4.948;2023-12-04T12:30:00;100416.84;;;15.07;47.01
59190;BME280;50749;51.636;4.948;2023-12-04T12:32:26;100413.28;;;15.07;46.77
59190;BME280;50749;51.636;4.948;2023-12-04T12:34:53;100409.63;;;15.02;47.25
59190;BME280;50749;51.636;4.948;2023-12-04T12:37:21;100406.97;;;15.06;47.09
59190;BME280;50749;51.636;4.948;2023-12-04T12:39:46;100400.22;;;15.03;46.71
59190;BME280;50749;51.636;4.948;2023-12-04T12:42:23;100404.34;;;15.10;46.67
59190;BME280;50749;51.636;4.948;2023-12-04T12:44:49;100395.16;;;15.05;47.86
59190;BME280;50749;51.636;4.948;2023-12-04T12:47:15;100397.66;;;15.11;47.40
59190;BME280;50749;51.636;4.948;2023-12-04T12:49:41;100392.06;;;15.07;46.91